Time;durP1;ratioP1;P1;durP2;ratioP2;P2;SDS_P1;SDS_P2;PMS_P1;PMS_P2;Temp;Humidity;BMP_temperature;BMP_pressure;BME280_temperature;BME280_humidity;BME280_pressure;Samples;Min_cycle;Max_cycle;Signal;HPM_P1;HPM_P2
2023/05/20 00:00:09;;;;;;;;;;;;;;;;;;4963396;28;20004;-63
2023/05/20 00:02:35;;;;;;;;;;;;;;;;;;4953177;28;20036;-65
2023/05/20 00:05:01;;;;;;;;;;;;;;;;;;4963001;28;20419;-63
2023/05/20 00:07:27;;;;;;;;;;;;;;;;;;4959680;28;20384;-63
2023/05/20 00:09:53;;;;;;;;;;;;;;;;;;4960289;28;19936;-63
2023/05/20 00:12:19;;;;;;;;;;;;;;;;;;4953241;28;19921;-63
2023/05/20 00:14:45;;;;;;;;;;;;;;;;;;4957997;28;20593;-64
2023/05/20 00:17:11;;;;;;;;;;;;;;;;;;4962974;28;20419;-64
2023/05/20 00:19:37;;;;;;;;;;;;;;;;;;4961695;28;20020;-64
2023/05/20 00:22:03;;;;;;;;;;;;;;;;;;4962864;28;19922;-63
2023/05/20 00:24:29;;;;;;;;;;;;;;;;;;4954439;28;20312;-63
2023/05/20 00:26:55;;;;;;;;;;;;;;;;;;4962918;28;20045;-63
2023/05/20 00:29:21;;;;;;;;;;;;;;;;;;4962250;28;20340;-63
2023/05/20 00:31:47;;;;;;;;;;;;;;;;;;4952960;28;19938;-63
2023/05/20 00:34:13;;;;;;;;;;;;;;;;;;4963362;28;19922;-63
2023/05/20 00:36:39;;;;;;;;;;;;;;;;;;4963019;28;19968;-63
2023/05/20 00:39:05;;;;;;;;;;;;;;;;;;4954394;28;19929;-62
2023/05/20 00:41:31;;;;;;;;;;;;;;;;;;4962617;28;20376;-62
2023/05/20 00:43:57;;;;;;;;;;;;;;;;;;4959928;28;19922;-62
2023/05/20 00:46:23;;;;;;;;;;;;;;;;;;4962275;28;19922;-62
2023/05/20 00:48:49;;;;;;;;;;;;;;;;;;4962477;28;19922;-62
2023/05/20 00:51:15;;;;;;;;;;;;;;;;;;4954020;28;20020;-62
2023/05/20 00:53:41;;;;;;;;;;;;;;;;;;4955765;28;19993;-63
2023/05/20 00:56:07;;;;;;;;;;;;;;;;;;4950086;28;19935;-63
2023/05/20 00:58:35;;;;;;;;;;;;;;;;;;4963328;28;19959;-62
2023/05/20 01:01:01;;;;;;;;;;;;;;;;;;4961536;28;20281;-63
2023/05/20 01:03:27;;;;;;;;;;;;;;;;;;5046187;23;19949;-61
2023/05/20 01:05:53;;;;;;;;;;;;;;;;;;4980073;28;19922;-61
2023/05/20 01:08:19;;;;;;;;;;;;;;;;;;4976488;28;19918;-60
2023/05/20 01:10:45;;;;;;;;;;;;;;;;;;4985134;28;20275;-61
2023/05/20 01:13:11;;;;;;;;;;;;;;;;;;4982782;28;20652;-60
2023/05/20 01:15:37;;;;;;;;;;;;;;;;;;4985187;28;19925;-61
2023/05/20 01:18:04;;;;;;;;;;;;;;;;;;4986839;28;19929;-61
2023/05/20 01:20:31;;;;;;;;;;;;;;;;;;4982711;28;19917;-61
2023/05/20 01:22:57;;;;;;;;;;;;;;;;;;4971152;28;19929;-61
2023/05/20 01:25:23;;;;;;;;;;;;;;;;;;4972249;28;19976;-62
2023/05/20 01:27:49;;;;;;;;;;;;;;;;;;4985674;28;20398;-60
2023/05/20 01:30:15;;;;;;;;;;;;;;;;;;4985420;28;20394;-60
2023/05/20 01:32:41;;;;;;;;;;;;;;;;;;4979368;28;20021;-60
2023/05/20 01:35:07;;;;;;;;;;;;;;;;;;4976730;28;19944;-60
2023/05/20 01:37:33;;;;;;;;;;;;;;;;;;4985660;28;20385;-60
2023/05/20 01:39:59;;;;;;;;;;;;;;;;;;4972492;28;19918;-60
2023/05/20 01:42:25;;;;;;;;;;;;;;;;;;4972298;28;19933;-61
2023/05/20 01:44:51;;;;;;;;;;;;;;;;;;4974046;28;19977;-60
2023/05/20 01:47:17;;;;;;;;;;;;;;;;;;4969285;28;19961;-59
2023/05/20 01:49:45;;;;;;;;;;;;;;;;;;4984747;28;19930;-60
2023/05/20 01:52:11;;;;;;;;;;;;;;;;;;4967791;28;19918;-59
2023/05/20 01:54:37;;;;;;;;;;;;;;;;;;4974951;28;20021;-59
2023/05/20 01:57:03;;;;;;;;;;;;;;;;;;4985796;28;19925;-59
2023/05/20 01:59:29;;;;;;;;;;;;;;;;;;4968019;28;19921;-59
2023/05/20 02:01:55;;;;;;;;;;;;;;;;;;4979172;28;20736;-59
2023/05/20 02:04:21;;;;;;;;;;;;;;;;;;4964252;28;19980;-58
2023/05/20 02:06:47;;;;;;;;;;;;;;;;;;4985083;28;19921;-59
2023/05/20 02:09:13;;;;;;;;;;;;;;;;;;4980665;28;19924;-59
2023/05/20 02:11:39;;;;;;;;;;;;;;;;;;4968717;28;19945;-59
2023/05/20 02:14:05;;;;;;;;;;;;;;;;;;4978313;28;19983;-60
2023/05/20 02:16:31;;;;;;;;;;;;;;;;;;4984223;28;19929;-58
2023/05/20 02:18:57;;;;;;;;;;;;;;;;;;4967467;28;19977;-59
2023/05/20 02:21:23;;;;;;;;;;;;;;;;;;4967242;28;19929;-58
2023/05/20 02:23:49;;;;;;;;;;;;;;;;;;4983673;28;19924;-58
2023/05/20 02:26:16;;;;;;;;;;;;;;;;;;4984318;28;19952;-60
2023/05/20 02:28:45;;;;;;;;;;;;;;;;;;4960729;28;19918;-59
2023/05/20 02:31:11;;;;;;;;;;;;;;;;;;4980080;28;20009;-59
2023/05/20 02:33:37;;;;;;;;;;;;;;;;;;4983784;28;20422;-59
2023/05/20 02:36:03;;;;;;;;;;;;;;;;;;4984648;28;19951;-59
2023/05/20 02:38:31;;;;;;;;;;;;;;;;;;4983916;28;19929;-59
2023/05/20 02:40:58;;;;;;;;;;;;;;;;;;4980159;28;20024;-59
2023/05/20 02:43:25;;;;;;;;;;;;;;;;;;4963402;28;19975;-59
2023/05/20 02:45:51;;;;;;;;;;;;;;;;;;4971807;28;19949;-59
2023/05/20 02:48:17;;;;;;;;;;;;;;;;;;4967078;28;20291;-59
2023/05/20 02:50:43;;;;;;;;;;;;;;;;;;4969885;28;20382;-59
2023/05/20 02:53:09;;;;;;;;;;;;;;;;;;4965527;28;19930;-60
2023/05/20 02:55:35;;;;;;;;;;;;;;;;;;4978782;28;19928;-60
2023/05/20 02:58:01;;;;;;;;;;;;;;;;;;4984182;28;20052;-59
2023/05/20 03:00:30;;;;;;;;;;;;;;;;;;4981414;28;20013;-59
2023/05/20 03:02:56;;;;;;;;;;;;;;;;;;4982908;28;19936;-60
2023/05/20 03:05:22;;;;;;;;;;;;;;;;;;4983142;28;19926;-59
2023/05/20 03:07:48;;;;;;;;;;;;;;;;;;4983612;28;20287;-60
2023/05/20 03:10:14;;;;;;;;;;;;;;;;;;4981509;28;19929;-59
2023/05/20 03:12:40;;;;;;;;;;;;;;;;;;4980916;28;19922;-59
2023/05/20 03:15:06;;;;;;;;;;;;;;;;;;4975017;28;20025;-61
2023/05/20 03:17:32;;;;;;;;;;;;;;;;;;4979032;28;20137;-60
2023/05/20 03:19:58;;;;;;;;;;;;;;;;;;4981315;28;19922;-61
2023/05/20 03:22:24;;;;;;;;;;;;;;;;;;4976991;28;20390;-60
2023/05/20 03:24:51;;;;;;;;;;;;;;;;;;4979643;28;20015;-62
2023/05/20 03:27:17;;;;;;;;;;;;;;;;;;4973336;28;19934;-62
2023/05/20 03:29:43;;;;;;;;;;;;;;;;;;4980378;28;19921;-61
2023/05/20 03:32:09;;;;;;;;;;;;;;;;;;4965920;28;20446;-62
2023/05/20 03:34:35;;;;;;;;;;;;;;;;;;4979451;28;19926;-62
2023/05/20 03:37:01;;;;;;;;;;;;;;;;;;4982942;28;19925;-61
2023/05/20 03:39:27;;;;;;;;;;;;;;;;;;4983112;28;19921;-61
2023/05/20 03:41:53;;;;;;;;;;;;;;;;;;4982459;28;19981;-61
2023/05/20 03:44:19;;;;;;;;;;;;;;;;;;4976311;28;19929;-62
2023/05/20 03:46:45;;;;;;;;;;;;;;;;;;4964227;28;19928;-62
2023/05/20 03:49:11;;;;;;;;;;;;;;;;;;4983007;28;20013;-61
2023/05/20 03:51:37;;;;;;;;;;;;;;;;;;4980261;28;20009;-61
2023/05/20 03:54:04;;;;;;;;;;;;;;;;;;4982690;28;20393;-62
2023/05/20 03:56:30;;;;;;;;;;;;;;;;;;4982973;28;19976;-62
2023/05/20 03:58:57;;;;;;;;;;;;;;;;;;4982463;28;19932;-63
2023/05/20 04:01:24;;;;;;;;;;;;;;;;;;4980484;28;19944;-61
2023/05/20 04:03:50;;;;;;;;;;;;;;;;;;4981906;28;19977;-62
2023/05/20 04:06:16;;;;;;;;;;;;;;;;;;4982700;28;19971;-62
2023/05/20 04:08:42;;;;;;;;;;;;;;;;;;4981871;28;19924;-61
2023/05/20 04:11:09;;;;;;;;;;;;;;;;;;4979708;28;19930;-61
2023/05/20 04:13:35;;;;;;;;;;;;;;;;;;4972074;28;19983;-65
2023/05/20 04:16:01;;;;;;;;;;;;;;;;;;4970863;28;19965;-62
2023/05/20 04:18:30;;;;;;;;;;;;;;;;;;4966761;28;19959;-61
2023/05/20 04:20:56;;;;;;;;;;;;;;;;;;4961654;28;19964;-60
2023/05/20 04:23:23;;;;;;;;;;;;;;;;;;4968667;28;19941;-60
2023/05/20 04:25:49;;;;;;;;;;;;;;;;;;4971575;28;20364;-62
2023/05/20 04:28:15;;;;;;;;;;;;;;;;;;4973570;28;20375;-60
2023/05/20 04:30:41;;;;;;;;;;;;;;;;;;4963701;28;19925;-60
2023/05/20 04:33:07;;;;;;;;;;;;;;;;;;4971713;28;19922;-61
2023/05/20 04:35:33;;;;;;;;;;;;;;;;;;4969023;28;19929;-60
2023/05/20 04:37:59;;;;;;;;;;;;;;;;;;4966424;28;20354;-61
2023/05/20 04:40:26;;;;;;;;;;;;;;;;;;4973121;28;19925;-61
2023/05/20 04:42:52;;;;;;;;;;;;;;;;;;4976351;28;19933;-61
2023/05/20 04:45:18;;;;;;;;;;;;;;;;;;4974606;28;19922;-61
2023/05/20 04:47:44;;;;;;;;;;;;;;;;;;4986358;28;19921;-61
2023/05/20 04:50:10;;;;;;;;;;;;;;;;;;4981354;28;19941;-61
2023/05/20 04:52:37;;;;;;;;;;;;;;;;;;4973979;28;19926;-61
2023/05/20 04:55:03;;;;;;;;;;;;;;;;;;4980452;28;19925;-60
2023/05/20 04:57:30;;;;;;;;;;;;;;;;;;4962173;28;19922;-60
2023/05/20 04:59:57;;;;;;;;;;;;;;;;;;4983507;28;19934;-59
2023/05/20 05:02:23;;;;;;;;;;;;;;;;;;4984426;28;20367;-61
2023/05/20 05:04:49;;;;;;;;;;;;;;;;;;4964857;28;20004;-62
2023/05/20 05:07:15;;;;;;;;;;;;;;;;;;4976012;28;19926;-60
2023/05/20 05:09:41;;;;;;;;;;;;;;;;;;4980311;28;19996;-60
2023/05/20 05:12:07;;;;;;;;;;;;;;;;;;4971400;28;19922;-61
2023/05/20 05:14:33;;;;;;;;;;;;;;;;;;4978000;28;19922;-64
2023/05/20 05:16:59;;;;;;;;;;;;;;;;;;4976643;28;20375;-61
2023/05/20 05:19:25;;;;;;;;;;;;;;;;;;4980753;28;20353;-60
2023/05/20 05:21:51;;;;;;;;;;;;;;;;;;4977025;28;19962;-60
2023/05/20 05:24:17;;;;;;;;;;;;;;;;;;4974759;28;19922;-61
2023/05/20 05:26:43;;;;;;;;;;;;;;;;;;4968637;28;19922;-60
2023/05/20 05:29:09;;;;;;;;;;;;;;;;;;4976001;28;19968;-61
2023/05/20 05:31:35;;;;;;;;;;;;;;;;;;4973006;28;19933;-62
2023/05/20 05:34:01;;;;;;;;;;;;;;;;;;4979925;28;19926;-60
2023/05/20 05:36:27;;;;;;;;;;;;;;;;;;4973895;28;19928;-61
2023/05/20 05:38:53;;;;;;;;;;;;;;;;;;4977696;28;19922;-61
2023/05/20 05:41:21;;;;;;;;;;;;;;;;;;4975647;28;19922;-60
2023/05/20 05:43:50;;;;;;;;;;;;;;;;;;4971426;28;19988;-60
2023/05/20 05:46:16;;;;;;;;;;;;;;;;;;4980946;28;20057;-61
2023/05/20 05:48:47;;;;;;;;;;;;;;;;;;4985137;28;20029;-60
2023/05/20 05:51:13;;;;;;;;;;;;;;;;;;4985134;28;19922;-61
2023/05/20 05:53:39;;;;;;;;;;;;;;;;;;4984388;28;20266;-60
2023/05/20 05:56:05;;;;;;;;;;;;;;;;;;4977522;28;20454;-62
2023/05/20 05:58:31;;;;;;;;;;;;;;;;;;4979723;28;19983;-65
2023/05/20 06:00:57;;;;;;;;;;;;;;;;;;4983109;28;19925;-64
2023/05/20 06:03:24;;;;;;;;;;;;;;;;;;4977659;28;19922;-64
2023/05/20 06:05:50;;;;;;;;;;;;;;;;;;4971056;28;20434;-64
2023/05/20 06:08:16;;;;;;;;;;;;;;;;;;4982440;28;20418;-65
2023/05/20 06:10:42;;;;;;;;;;;;;;;;;;4978262;28;19926;-65
2023/05/20 06:13:08;;;;;;;;;;;;;;;;;;4972932;28;19922;-67
2023/05/20 06:15:35;;;;;;;;;;;;;;;;;;4976129;28;19930;-67
2023/05/20 06:18:01;;;;;;;;;;;;;;;;;;4970645;28;19953;-66
2023/05/20 06:20:27;;;;;;;;;;;;;;;;;;4973995;28;19970;-61
2023/05/20 06:22:53;;;;;;;;;;;;;;;;;;4972159;28;19969;-62
2023/05/20 06:25:19;;;;;;;;;;;;;;;;;;4978748;28;20368;-61
2023/05/20 06:27:45;;;;;;;;;;;;;;;;;;4973430;28;19922;-60
2023/05/20 06:30:11;;;;;;;;;;;;;;;;;;4967369;28;20005;-60
2023/05/20 06:32:37;;;;;;;;;;;;;;;;;;4970032;28;19928;-61
2023/05/20 06:35:03;;;;;;;;;;;;;;;;;;4976246;28;20211;-61
2023/05/20 06:37:29;;;;;;;;;;;;;;;;;;4975362;28;20403;-61
2023/05/20 06:39:55;;;;;;;;;;;;;;;;;;4971318;28;19930;-61
2023/05/20 06:42:21;;;;;;;;;;;;;;;;;;4972089;28;20701;-61
2023/05/20 06:44:47;;;;;;;;;;;;;;;;;;4971358;28;20386;-61
2023/05/20 06:47:13;;;;;;;;;;;;;;;;;;4982912;28;19922;-61
2023/05/20 06:49:39;;;;;;;;;;;;;;;;;;4982326;28;19929;-60
2023/05/20 06:52:05;;;;;;;;;;;;;;;;;;4978425;28;19922;-62
2023/05/20 06:54:33;;;;;;;;;;;;;;;;;;4984404;28;19991;-62
2023/05/20 06:56:59;;;;;;;;;;;;;;;;;;4983808;28;20007;-61
2023/05/20 06:59:25;;;;;;;;;;;;;;;;;;4978038;28;20454;-62
2023/05/20 07:01:51;;;;;;;;;;;;;;;;;;4976958;28;19945;-61
2023/05/20 07:04:17;;;;;;;;;;;;;;;;;;4982223;28;19928;-62
2023/05/20 07:06:43;;;;;;;;;;;;;;;;;;4983263;28;19922;-61
2023/05/20 07:09:09;;;;;;;;;;;;;;;;;;4981596;28;20348;-63
2023/05/20 07:11:35;;;;;;;;;;;;;;;;;;4984180;28;20422;-64
2023/05/20 07:14:01;;;;;;;;;;;;;;;;;;4983648;28;20013;-61
2023/05/20 07:16:28;;;;;;;;;;;;;;;;;;4976724;28;19922;-61
2023/05/20 07:18:54;;;;;;;;;;;;;;;;;;4978881;28;19929;-61
2023/05/20 07:21:20;;;;;;;;;;;;;;;;;;4982295;28;19922;-59
2023/05/20 07:26:12;;;;;;;;;;;;;;;;;;4982860;28;19910;-59
2023/05/20 07:28:38;;;;;;;;;;;;;;;;;;4980218;28;19922;-64
2023/05/20 07:31:04;;;;;;;;;;;;;;;;;;4972074;28;20419;-66
2023/05/20 07:33:30;;;;;;;;;;;;;;;;;;4978703;28;19925;-64
2023/05/20 07:35:56;;;;;;;;;;;;;;;;;;4968065;28;19933;-64
2023/05/20 07:38:22;;;;;;;;;;;;;;;;;;4973005;28;19941;-64
2023/05/20 07:40:48;;;;;;;;;;;;;;;;;;4969563;28;19957;-64
2023/05/20 07:43:18;;;;;;;;;;;;;;;;;;4974862;28;19926;-64
2023/05/20 07:45:47;;;;;;;;;;;;;;;;;;4971001;28;19932;-64
2023/05/20 07:48:13;;;;;;;;;;;;;;;;;;4973013;28;19933;-65
2023/05/20 07:50:40;;;;;;;;;;;;;;;;;;4970841;28;19926;-65
2023/05/20 07:53:05;;;;;;;;;;;;;;;;;;4976193;28;19972;-65
2023/05/20 07:55:31;;;;;;;;;;;;;;;;;;4972672;28;20208;-65
2023/05/20 07:57:57;;;;;;;;;;;;;;;;;;4970079;28;20531;-64
2023/05/20 08:00:23;;;;;;;;;;;;;;;;;;4975523;28;19929;-65
2023/05/20 08:02:50;;;;;;;;;;;;;;;;;;4965608;28;19918;-66
2023/05/20 08:05:16;;;;;;;;;;;;;;;;;;4974386;28;19925;-64
2023/05/20 08:07:42;;;;;;;;;;;;;;;;;;4976258;28;20017;-65
2023/05/20 08:10:08;;;;;;;;;;;;;;;;;;4960336;28;20052;-65
2023/05/20 08:12:34;;;;;;;;;;;;;;;;;;4970875;28;19933;-64
2023/05/20 08:15:00;;;;;;;;;;;;;;;;;;4972700;28;19922;-64
2023/05/20 08:17:26;;;;;;;;;;;;;;;;;;4966341;28;19929;-65
2023/05/20 08:19:52;;;;;;;;;;;;;;;;;;4972263;28;19926;-64
2023/05/20 08:22:18;;;;;;;;;;;;;;;;;;4971257;28;19968;-64
2023/05/20 08:24:44;;;;;;;;;;;;;;;;;;4965083;28;19922;-64
2023/05/20 08:27:10;;;;;;;;;;;;;;;;;;4969410;28;19921;-63
2023/05/20 08:29:36;;;;;;;;;;;;;;;;;;4967194;28;20278;-65
2023/05/20 08:32:02;;;;;;;;;;;;;;;;;;4965496;28;19934;-64
2023/05/20 08:34:28;;;;;;;;;;;;;;;;;;4967410;28;19933;-64
2023/05/20 08:36:56;;;;;;;;;;;;;;;;;;4970669;28;19937;-64
2023/05/20 08:39:22;;;;;;;;;;;;;;;;;;4959239;28;19936;-63
2023/05/20 08:41:48;;;;;;;;;;;;;;;;;;4963922;28;20495;-64
2023/05/20 08:44:14;;;;;;;;;;;;;;;;;;4970316;28;20028;-64
2023/05/20 08:46:41;;;;;;;;;;;;;;;;;;4973757;28;19925;-65
2023/05/20 08:49:07;;;;;;;;;;;;;;;;;;4979584;28;19926;-65
2023/05/20 08:51:33;;;;;;;;;;;;;;;;;;4980345;28;20008;-64
2023/05/20 08:53:59;;;;;;;;;;;;;;;;;;4980450;28;19932;-64
2023/05/20 08:56:26;;;;;;;;;;;;;;;;;;4975004;28;19929;-64
2023/05/20 08:58:52;;;;;;;;;;;;;;;;;;4979492;28;20081;-64
2023/05/20 09:01:18;;;;;;;;;;;;;;;;;;4961976;28;20851;-65
2023/05/20 09:03:44;;;;;;;;;;;;;;;;;;4979444;28;19976;-64
2023/05/20 09:06:11;;;;;;;;;;;;;;;;;;4977996;28;19929;-64
2023/05/20 09:08:37;;;;;;;;;;;;;;;;;;4977031;28;19929;-64
2023/05/20 09:11:03;;;;;;;;;;;;;;;;;;4978513;28;20370;-64
2023/05/20 09:13:29;;;;;;;;;;;;;;;;;;4979999;28;19933;-64
2023/05/20 09:15:55;;;;;;;;;;;;;;;;;;4976327;28;20052;-65
2023/05/20 09:18:21;;;;;;;;;;;;;;;;;;4970823;28;20020;-65
2023/05/20 09:20:47;;;;;;;;;;;;;;;;;;4960777;28;19922;-64
2023/05/20 09:23:13;;;;;;;;;;;;;;;;;;4970273;28;19926;-64
2023/05/20 09:25:40;;;;;;;;;;;;;;;;;;4971473;28;20363;-65
2023/05/20 09:28:06;;;;;;;;;;;;;;;;;;4972982;28;20004;-65
2023/05/20 09:30:32;;;;;;;;;;;;;;;;;;4970093;28;20013;-65
2023/05/20 09:32:58;;;;;;;;;;;;;;;;;;4971330;28;19976;-65
2023/05/20 09:35:25;;;;;;;;;;;;;;;;;;4970484;28;19925;-65
2023/05/20 09:37:51;;;;;;;;;;;;;;;;;;4973213;28;19925;-65
2023/05/20 09:40:20;;;;;;;;;;;;;;;;;;4972795;28;19918;-65
2023/05/20 09:42:46;;;;;;;;;;;;;;;;;;4969587;28;19949;-64
2023/05/20 09:45:12;;;;;;;;;;;;;;;;;;4969840;28;19992;-65
2023/05/20 09:47:39;;;;;;;;;;;;;;;;;;4981644;28;19929;-65
2023/05/20 09:50:06;;;;;;;;;;;;;;;;;;4983044;28;19933;-65
2023/05/20 09:52:32;;;;;;;;;;;;;;;;;;4972182;28;19953;-64
2023/05/20 09:54:58;;;;;;;;;;;;;;;;;;4979595;28;19926;-66
2023/05/20 09:57:24;;;;;;;;;;;;;;;;;;4982549;28;20628;-65
2023/05/20 09:59:51;;;;;;;;;;;;;;;;;;4981200;28;19928;-65
2023/05/20 10:02:17;;;;;;;;;;;;;;;;;;4982274;28;19932;-65
2023/05/20 10:04:43;;;;;;;;;;;;;;;;;;4980085;28;21897;-65
2023/05/20 10:07:10;;;;;;;;;;;;;;;;;;4981071;28;19980;-65
2023/05/20 10:09:36;;;;;;;;;;;;;;;;;;4982662;28;20398;-65
2023/05/20 10:12:02;;;;;;;;;;;;;;;;;;4979536;28;20421;-65
2023/05/20 10:14:28;;;;;;;;;;;;;;;;;;4981319;28;19969;-65
2023/05/20 10:16:54;;;;;;;;;;;;;;;;;;4978607;28;20319;-65
2023/05/20 10:19:20;;;;;;;;;;;;;;;;;;4981487;28;19941;-65
2023/05/20 10:21:46;;;;;;;;;;;;;;;;;;4969622;28;19926;-64
2023/05/20 10:24:12;;;;;;;;;;;;;;;;;;4976292;28;19925;-64
2023/05/20 10:26:38;;;;;;;;;;;;;;;;;;4978300;28;19926;-64
2023/05/20 10:29:05;;;;;;;;;;;;;;;;;;4967663;28;19926;-65
2023/05/20 10:31:34;;;;;;;;;;;;;;;;;;4981220;28;19980;-64
2023/05/20 10:34:00;;;;;;;;;;;;;;;;;;4958024;28;19928;-64
2023/05/20 10:36:26;;;;;;;;;;;;;;;;;;4969354;28;19948;-64
2023/05/20 10:38:52;;;;;;;;;;;;;;;;;;4965186;28;19948;-63
2023/05/20 10:41:18;;;;;;;;;;;;;;;;;;4959756;28;19922;-64
2023/05/20 10:43:44;;;;;;;;;;;;;;;;;;4967033;28;19941;-64
2023/05/20 10:46:10;;;;;;;;;;;;;;;;;;4981942;28;20303;-64
2023/05/20 10:48:36;;;;;;;;;;;;;;;;;;4981319;28;19926;-65
2023/05/20 10:51:03;;;;;;;;;;;;;;;;;;4982843;28;19984;-64
2023/05/20 10:53:30;;;;;;;;;;;;;;;;;;4979814;28;19937;-64
2023/05/20 10:55:56;;;;;;;;;;;;;;;;;;4975635;28;19926;-63
2023/05/20 10:58:22;;;;;;;;;;;;;;;;;;4949817;28;19948;-64
2023/05/20 11:00:48;;;;;;;;;;;;;;;;;;4979038;28;19933;-64
2023/05/20 11:03:15;;;;;;;;;;;;;;;;;;4979049;28;20398;-63
2023/05/20 11:05:41;;;;;;;;;;;;;;;;;;4975267;28;19932;-64
2023/05/20 11:08:07;;;;;;;;;;;;;;;;;;4973593;28;19925;-64
2023/05/20 11:10:33;;;;;;;;;;;;;;;;;;4976922;28;19926;-63
2023/05/20 11:12:59;;;;;;;;;;;;;;;;;;4974620;28;19929;-64
2023/05/20 11:15:25;;;;;;;;;;;;;;;;;;4952931;28;19933;-63
2023/05/20 11:17:52;;;;;;;;;;;;;;;;;;4973053;28;19922;-63
2023/05/20 11:20:18;;;;;;;;;;;;;;;;;;4978093;28;19929;-63
2023/05/20 11:22:44;;;;;;;;;;;;;;;;;;4969179;28;19941;-63
2023/05/20 11:25:10;;;;;;;;;;;;;;;;;;4975365;28;19922;-63
2023/05/20 11:27:36;;;;;;;;;;;;;;;;;;4969568;28;19947;-65
2023/05/20 11:30:04;;;;;;;;;;;;;;;;;;4969448;28;19936;-64
2023/05/20 11:32:31;;;;;;;;;;;;;;;;;;4974656;28;19929;-64
2023/05/20 11:34:57;;;;;;;;;;;;;;;;;;4970008;28;19925;-64
2023/05/20 11:37:23;;;;;;;;;;;;;;;;;;4969194;28;19933;-63
2023/05/20 11:39:49;;;;;;;;;;;;;;;;;;4978142;28;19930;-64
2023/05/20 11:42:15;;;;;;;;;;;;;;;;;;4968880;28;20648;-63
2023/05/20 11:44:43;;;;;;;;;;;;;;;;;;4964731;28;19932;-63
2023/05/20 11:47:09;;;;;;;;;;;;;;;;;;4953245;28;20045;-63
2023/05/20 11:49:35;;;;;;;;;;;;;;;;;;4964123;28;19965;-64
2023/05/20 11:52:01;;;;;;;;;;;;;;;;;;4978768;28;20020;-62
2023/05/20 11:54:27;;;;;;;;;;;;;;;;;;4982798;28;20772;-63
2023/05/20 11:56:53;;;;;;;;;;;;;;;;;;4965623;28;19925;-63
2023/05/20 11:59:19;;;;;;;;;;;;;;;;;;4982353;28;19922;-63
2023/05/20 12:01:45;;;;;;;;;;;;;;;;;;4980232;28;20274;-64
2023/05/20 12:04:13;;;;;;;;;;;;;;;;;;4979352;28;20294;-62
2023/05/20 12:06:39;;;;;;;;;;;;;;;;;;4974646;28;19977;-62
2023/05/20 12:09:07;;;;;;;;;;;;;;;;;;4977949;28;19943;-63
2023/05/20 12:11:34;;;;;;;;;;;;;;;;;;4981306;28;19964;-63
2023/05/20 12:14:00;;;;;;;;;;;;;;;;;;4962474;28;19932;-63
2023/05/20 12:16:26;;;;;;;;;;;;;;;;;;4981820;28;19926;-64
2023/05/20 12:18:52;;;;;;;;;;;;;;;;;;4982846;28;19928;-63
2023/05/20 12:21:18;;;;;;;;;;;;;;;;;;4973828;28;19922;-63
2023/05/20 12:23:44;;;;;;;;;;;;;;;;;;4972448;28;20288;-63
2023/05/20 12:26:10;;;;;;;;;;;;;;;;;;4982716;28;19952;-63
2023/05/20 12:28:36;;;;;;;;;;;;;;;;;;4981573;28;19946;-64
2023/05/20 12:31:02;;;;;;;;;;;;;;;;;;4981839;28;19922;-63
2023/05/20 12:33:28;;;;;;;;;;;;;;;;;;4981734;28;19961;-64
2023/05/20 12:35:54;;;;;;;;;;;;;;;;;;4977537;28;19937;-64
2023/05/20 12:38:20;;;;;;;;;;;;;;;;;;4961556;28;19977;-64
2023/05/20 12:40:46;;;;;;;;;;;;;;;;;;4959439;28;19927;-64
2023/05/20 12:43:12;;;;;;;;;;;;;;;;;;4986747;28;19922;-64
2023/05/20 12:45:38;;;;;;;;;;;;;;;;;;4992396;28;19976;-63
2023/05/20 12:48:06;;;;;;;;;;;;;;;;;;4984361;28;19988;-64
2023/05/20 12:50:32;;;;;;;;;;;;;;;;;;4984122;28;19928;-63
2023/05/20 12:52:58;;;;;;;;;;;;;;;;;;4983580;28;20017;-63
2023/05/20 12:55:24;;;;;;;;;;;;;;;;;;4978913;28;20009;-63
2023/05/20 12:57:50;;;;;;;;;;;;;;;;;;4987106;28;19921;-64
2023/05/20 13:00:16;;;;;;;;;;;;;;;;;;4982368;28;19926;-64
2023/05/20 13:02:42;;;;;;;;;;;;;;;;;;4986527;28;19944;-63
2023/05/20 13:05:09;;;;;;;;;;;;;;;;;;4987402;28;19976;-63
2023/05/20 13:07:35;;;;;;;;;;;;;;;;;;4987402;28;19922;-65
2023/05/20 13:10:01;;;;;;;;;;;;;;;;;;4988044;28;19925;-63
2023/05/20 13:12:27;;;;;;;;;;;;;;;;;;4966482;28;20499;-63
2023/05/20 13:14:53;;;;;;;;;;;;;;;;;;4984263;28;20024;-63
2023/05/20 13:17:19;;;;;;;;;;;;;;;;;;4982244;28;19969;-63
2023/05/20 13:19:45;;;;;;;;;;;;;;;;;;4986637;28;19956;-63
2023/05/20 13:22:11;;;;;;;;;;;;;;;;;;4987213;28;20303;-63
2023/05/20 13:24:37;;;;;;;;;;;;;;;;;;4984885;28;19929;-63
2023/05/20 13:27:03;;;;;;;;;;;;;;;;;;4987471;28;19945;-64
2023/05/20 13:29:29;;;;;;;;;;;;;;;;;;4985305;28;19945;-63
2023/05/20 13:31:55;;;;;;;;;;;;;;;;;;4985357;28;20053;-63
2023/05/20 13:34:21;;;;;;;;;;;;;;;;;;4968143;28;20401;-62
2023/05/20 13:36:47;;;;;;;;;;;;;;;;;;4986247;28;19928;-62
2023/05/20 13:39:13;;;;;;;;;;;;;;;;;;4987021;28;19921;-63
2023/05/20 13:41:40;;;;;;;;;;;;;;;;;;4973641;28;20324;-62
2023/05/20 13:44:06;;;;;;;;;;;;;;;;;;4972214;28;20040;-63
2023/05/20 13:46:32;;;;;;;;;;;;;;;;;;4983562;28;19969;-63
2023/05/20 13:48:58;;;;;;;;;;;;;;;;;;4975510;28;20509;-63
2023/05/20 13:51:24;;;;;;;;;;;;;;;;;;4983703;28;19922;-63
2023/05/20 13:53:50;;;;;;;;;;;;;;;;;;4979348;28;19928;-63
2023/05/20 13:56:16;;;;;;;;;;;;;;;;;;4975861;28;19926;-64
2023/05/20 13:58:42;;;;;;;;;;;;;;;;;;4983131;28;20397;-64
2023/05/20 14:01:11;;;;;;;;;;;;;;;;;;4971180;28;19997;-61
2023/05/20 14:03:38;;;;;;;;;;;;;;;;;;4975183;28;19969;-61
2023/05/20 14:06:04;;;;;;;;;;;;;;;;;;4974374;28;19926;-61
2023/05/20 14:08:30;;;;;;;;;;;;;;;;;;4976199;28;20209;-61
2023/05/20 14:10:56;;;;;;;;;;;;;;;;;;4975162;28;19930;-63
2023/05/20 14:13:22;;;;;;;;;;;;;;;;;;4972641;28;19941;-61
2023/05/20 14:15:49;;;;;;;;;;;;;;;;;;4976624;28;20004;-61
2023/05/20 14:18:15;;;;;;;;;;;;;;;;;;4972746;28;20530;-62
2023/05/20 14:20:41;;;;;;;;;;;;;;;;;;4966220;28;19922;-61
2023/05/20 14:23:07;;;;;;;;;;;;;;;;;;4976226;28;20295;-62
2023/05/20 14:25:33;;;;;;;;;;;;;;;;;;4967199;28;20000;-60
2023/05/20 14:27:59;;;;;;;;;;;;;;;;;;4972568;28;20387;-60
2023/05/20 14:30:25;;;;;;;;;;;;;;;;;;4968817;28;20040;-60
2023/05/20 14:32:51;;;;;;;;;;;;;;;;;;4973234;28;19928;-60
2023/05/20 14:35:17;;;;;;;;;;;;;;;;;;4968820;28;19965;-61
2023/05/20 14:37:43;;;;;;;;;;;;;;;;;;4973130;28;20036;-60
2023/05/20 14:40:09;;;;;;;;;;;;;;;;;;4970680;28;19929;-60
2023/05/20 14:42:36;;;;;;;;;;;;;;;;;;4979233;28;20405;-61
2023/05/20 14:45:02;;;;;;;;;;;;;;;;;;4971705;28;20147;-60
2023/05/20 14:47:28;;;;;;;;;;;;;;;;;;4978824;28;20007;-60
2023/05/20 14:49:54;;;;;;;;;;;;;;;;;;4977250;28;19984;-60
2023/05/20 14:52:20;;;;;;;;;;;;;;;;;;4972180;28;20367;-60
2023/05/20 14:54:46;;;;;;;;;;;;;;;;;;4974474;28;19922;-60
2023/05/20 14:57:12;;;;;;;;;;;;;;;;;;4964286;28;20678;-60
2023/05/20 14:59:38;;;;;;;;;;;;;;;;;;4979288;28;19922;-61
2023/05/20 15:02:05;;;;;;;;;;;;;;;;;;4978882;28;19936;-62
2023/05/20 15:04:31;;;;;;;;;;;;;;;;;;4983749;28;19929;-60
2023/05/20 15:06:57;;;;;;;;;;;;;;;;;;4979665;28;19961;-61
2023/05/20 15:09:23;;;;;;;;;;;;;;;;;;4983784;28;19968;-61
2023/05/20 15:11:49;;;;;;;;;;;;;;;;;;4983261;28;19991;-61
2023/05/20 15:14:15;;;;;;;;;;;;;;;;;;4968918;28;20023;-61
2023/05/20 15:16:43;;;;;;;;;;;;;;;;;;4979568;28;19969;-61
2023/05/20 15:19:09;;;;;;;;;;;;;;;;;;4969823;28;19940;-61
2023/05/20 15:21:35;;;;;;;;;;;;;;;;;;4964662;28;19928;-62
2023/05/20 15:24:01;;;;;;;;;;;;;;;;;;4973838;28;19969;-60
2023/05/20 15:26:27;;;;;;;;;;;;;;;;;;4973749;28;19918;-61
2023/05/20 15:28:53;;;;;;;;;;;;;;;;;;4973244;28;20371;-61
2023/05/20 15:31:19;;;;;;;;;;;;;;;;;;4971524;28;19922;-60
2023/05/20 15:33:49;;;;;;;;;;;;;;;;;;4973063;28;19946;-61
2023/05/20 15:36:30;;;;;;;;;;;;;;;;;;4969808;28;20539;-62
2023/05/20 15:39:00;;;;;;;;;;;;;;;;;;4976337;28;19984;-62
2023/05/20 15:41:33;;;;;;;;;;;;;;;;;;4978211;28;19984;-61
2023/05/20 15:44:06;;;;;;;;;;;;;;;;;;4975821;28;20081;-62
2023/05/20 15:46:39;;;;;;;;;;;;;;;;;;4972570;28;20101;-62
2023/05/20 15:49:12;;;;;;;;;;;;;;;;;;4970075;28;19922;-63
2023/05/20 15:51:44;;;;;;;;;;;;;;;;;;4964628;28;19928;-62
2023/05/20 15:54:11;;;;;;;;;;;;;;;;;;4970858;28;20491;-63
2023/05/20 15:56:43;;;;;;;;;;;;;;;;;;4975810;28;19937;-63
2023/05/20 15:59:16;;;;;;;;;;;;;;;;;;4973637;28;19921;-62
2023/05/20 16:01:48;;;;;;;;;;;;;;;;;;4970594;28;20076;-61
2023/05/20 16:04:21;;;;;;;;;;;;;;;;;;4975379;28;19922;-62
2023/05/20 16:06:51;;;;;;;;;;;;;;;;;;4971083;28;19922;-61
2023/05/20 16:09:21;;;;;;;;;;;;;;;;;;4976429;28;20016;-63
2023/05/20 16:11:51;;;;;;;;;;;;;;;;;;4976518;28;20024;-63
2023/05/20 16:14:17;;;;;;;;;;;;;;;;;;4972779;28;20012;-63
2023/05/20 16:16:43;;;;;;;;;;;;;;;;;;4972708;28;20060;-63
2023/05/20 16:19:09;;;;;;;;;;;;;;;;;;4969191;28;20008;-63
2023/05/20 16:21:35;;;;;;;;;;;;;;;;;;4977267;28;20016;-65
2023/05/20 16:24:02;;;;;;;;;;;;;;;;;;4969874;28;20024;-62
2023/05/20 16:26:30;;;;;;;;;;;;;;;;;;4974486;28;20020;-62
2023/05/20 16:28:56;;;;;;;;;;;;;;;;;;4966174;28;19933;-62
2023/05/20 16:31:22;;;;;;;;;;;;;;;;;;4970670;28;19922;-63
2023/05/20 16:33:48;;;;;;;;;;;;;;;;;;4973191;28;19922;-63
2023/05/20 16:36:14;;;;;;;;;;;;;;;;;;4972582;28;20016;-63
2023/05/20 16:38:40;;;;;;;;;;;;;;;;;;4975696;28;19961;-64
2023/05/20 16:41:06;;;;;;;;;;;;;;;;;;4973346;28;20330;-64